sensor_id;sensor_type;location;lat;lon;timestamp;P1;durP1;ratioP1;P2;durP2;ratioP2
15673;SDS011;7937;48.090;16.212;2022-11-20T00:02:57;27.57;;;16.30;;
15673;SDS011;7937;48.090;16.212;2022-11-20T00:05:59;30.00;;;17.73;;
15673;SDS011;7937;48.090;16.212;2022-11-20T00:09:03;26.00;;;15.70;;
15673;SDS011;7937;48.090;16.212;2022-11-20T00:12:06;30.33;;;16.40;;
15673;SDS011;7937;48.090;16.212;2022-11-20T00:15:09;29.53;;;17.47;;
15673;SDS011;7937;48.090;16.212;2022-11-20T00:18:11;29.37;;;17.50;;
15673;SDS011;7937;48.090;16.212;2022-11-20T00:21:17;34.07;;;19.03;;
15673;SDS011;7937;48.090;16.212;2022-11-20T00:24:22;30.00;;;16.90;;
15673;SDS011;7937;48.090;16.212;2022-11-20T00:27:25;32.30;;;18.80;;
15673;SDS011;7937;48.090;16.212;2022-11-20T00:30:27;29.83;;;19.47;;
15673;SDS011;7937;48.090;16.212;2022-11-20T00:33:29;28.10;;;18.03;;
15673;SDS011;7937;48.090;16.212;2022-11-20T00:36:32;29.60;;;18.07;;
15673;SDS011;7937;48.090;16.212;2022-11-20T00:39:35;31.03;;;19.13;;
15673;SDS011;7937;48.090;16.212;2022-11-20T00:42:37;28.63;;;17.30;;
15673;SDS011;7937;48.090;16.212;2022-11-20T00:45:39;29.77;;;17.90;;
15673;SDS011;7937;48.090;16.212;2022-11-20T00:48:42;32.63;;;19.80;;
15673;SDS011;7937;48.090;16.212;2022-11-20T00:51:45;30.07;;;18.57;;
15673;SDS011;7937;48.090;16.212;2022-11-20T00:54:47;30.00;;;17.87;;
15673;SDS011;7937;48.090;16.212;2022-11-20T00:57:49;29.33;;;17.67;;
15673;SDS011;7937;48.090;16.212;2022-11-20T01:00:52;30.33;;;18.33;;
15673;SDS011;7937;48.090;16.212;2022-11-20T01:03:59;29.47;;;16.97;;
15673;SDS011;7937;48.090;16.212;2022-11-20T01:07:02;28.93;;;17.70;;
15673;SDS011;7937;48.090;16.212;2022-11-20T01:10:06;33.77;;;18.33;;
15673;SDS011;7937;48.090;16.212;2022-11-20T01:13:08;25.70;;;15.67;;
15673;SDS011;7937;48.090;16.212;2022-11-20T01:16:36;31.73;;;18.20;;
15673;SDS011;7937;48.090;16.212;2022-11-20T01:19:40;33.57;;;18.40;;
15673;SDS011;7937;48.090;16.212;2022-11-20T01:22:42;31.30;;;17.63;;
15673;SDS011;7937;48.090;16.212;2022-11-20T01:25:44;31.77;;;19.53;;
15673;SDS011;7937;48.090;16.212;2022-11-20T01:28:46;27.50;;;17.17;;
15673;SDS011;7937;48.090;16.212;2022-11-20T01:31:49;33.07;;;19.27;;
15673;SDS011;7937;48.090;16.212;2022-11-20T01:34:53;26.13;;;16.50;;
15673;SDS011;7937;48.090;16.212;2022-11-20T01:37:55;35.43;;;19.33;;
15673;SDS011;7937;48.090;16.212;2022-11-20T01:40:57;29.73;;;16.93;;
15673;SDS011;7937;48.090;16.212;2022-11-20T01:43:59;30.63;;;18.13;;
15673;SDS011;7937;48.090;16.212;2022-11-20T01:47:02;26.73;;;17.23;;
15673;SDS011;7937;48.090;16.212;2022-11-20T01:50:12;25.77;;;15.37;;
15673;SDS011;7937;48.090;16.212;2022-11-20T01:53:28;26.27;;;15.97;;
15673;SDS011;7937;48.090;16.212;2022-11-20T01:56:35;30.67;;;18.83;;
15673;SDS011;7937;48.090;16.212;2022-11-20T01:59:41;30.13;;;18.23;;
15673;SDS011;7937;48.090;16.212;2022-11-20T02:02:53;30.33;;;18.37;;
15673;SDS011;7937;48.090;16.212;2022-11-20T02:06:11;30.20;;;18.30;;
15673;SDS011;7937;48.090;16.212;2022-11-20T02:09:17;31.47;;;18.03;;
15673;SDS011;7937;48.090;16.212;2022-11-20T02:12:20;33.10;;;20.20;;
15673;SDS011;7937;48.090;16.212;2022-11-20T02:15:41;28.80;;;18.07;;
15673;SDS011;7937;48.090;16.212;2022-11-20T02:18:44;32.70;;;19.13;;
15673;SDS011;7937;48.090;16.212;2022-11-20T02:24:54;30.53;;;18.80;;
15673;SDS011;7937;48.090;16.212;2022-11-20T02:27:56;29.77;;;17.90;;
15673;SDS011;7937;48.090;16.212;2022-11-20T02:30:58;29.97;;;18.43;;
15673;SDS011;7937;48.090;16.212;2022-11-20T02:34:00;32.73;;;20.13;;
15673;SDS011;7937;48.090;16.212;2022-11-20T02:37:03;30.30;;;17.97;;
15673;SDS011;7937;48.090;16.212;2022-11-20T02:40:05;31.90;;;18.57;;
15673;SDS011;7937;48.090;16.212;2022-11-20T02:43:08;30.13;;;18.73;;
15673;SDS011;7937;48.090;16.212;2022-11-20T02:46:11;33.60;;;19.03;;
15673;SDS011;7937;48.090;16.212;2022-11-20T02:49:13;33.83;;;20.27;;
15673;SDS011;7937;48.090;16.212;2022-11-20T02:52:16;30.93;;;19.20;;
15673;SDS011;7937;48.090;16.212;2022-11-20T02:55:19;30.70;;;17.60;;
15673;SDS011;7937;48.090;16.212;2022-11-20T02:58:21;31.87;;;18.50;;
15673;SDS011;7937;48.090;16.212;2022-11-20T03:01:24;30.93;;;17.30;;
15673;SDS011;7937;48.090;16.212;2022-11-20T03:04:26;34.70;;;20.17;;
15673;SDS011;7937;48.090;16.212;2022-11-20T03:07:28;32.47;;;18.33;;
15673;SDS011;7937;48.090;16.212;2022-11-20T03:10:31;36.03;;;19.80;;
15673;SDS011;7937;48.090;16.212;2022-11-20T03:13:33;33.37;;;19.43;;
15673;SDS011;7937;48.090;16.212;2022-11-20T03:16:36;34.47;;;20.97;;
15673;SDS011;7937;48.090;16.212;2022-11-20T03:19:39;36.83;;;21.00;;
15673;SDS011;7937;48.090;16.212;2022-11-20T03:22:41;35.83;;;20.40;;
15673;SDS011;7937;48.090;16.212;2022-11-20T03:25:44;33.63;;;20.60;;
15673;SDS011;7937;48.090;16.212;2022-11-20T03:28:50;37.20;;;21.67;;
15673;SDS011;7937;48.090;16.212;2022-11-20T03:31:53;36.40;;;20.57;;
15673;SDS011;7937;48.090;16.212;2022-11-20T03:34:55;34.20;;;21.10;;
15673;SDS011;7937;48.090;16.212;2022-11-20T03:37:57;37.17;;;20.97;;
15673;SDS011;7937;48.090;16.212;2022-11-20T03:41:03;32.97;;;19.97;;
15673;SDS011;7937;48.090;16.212;2022-11-20T03:44:08;36.57;;;21.33;;
15673;SDS011;7937;48.090;16.212;2022-11-20T03:47:11;34.67;;;19.40;;
15673;SDS011;7937;48.090;16.212;2022-11-20T03:50:14;37.10;;;21.80;;
15673;SDS011;7937;48.090;16.212;2022-11-20T03:53:16;35.07;;;20.07;;
15673;SDS011;7937;48.090;16.212;2022-11-20T03:56:19;38.03;;;21.70;;
15673;SDS011;7937;48.090;16.212;2022-11-20T03:59:24;33.47;;;19.57;;
15673;SDS011;7937;48.090;16.212;2022-11-20T04:02:26;34.30;;;19.80;;
15673;SDS011;7937;48.090;16.212;2022-11-20T04:05:28;35.87;;;20.67;;
15673;SDS011;7937;48.090;16.212;2022-11-20T04:08:30;36.03;;;21.40;;
15673;SDS011;7937;48.090;16.212;2022-11-20T04:11:34;32.33;;;19.40;;
15673;SDS011;7937;48.090;16.212;2022-11-20T04:14:37;35.83;;;21.20;;
15673;SDS011;7937;48.090;16.212;2022-11-20T04:17:40;35.40;;;20.37;;
15673;SDS011;7937;48.090;16.212;2022-11-20T04:20:42;34.17;;;19.33;;
15673;SDS011;7937;48.090;16.212;2022-11-20T04:23:44;33.90;;;19.73;;
15673;SDS011;7937;48.090;16.212;2022-11-20T04:26:46;37.07;;;18.80;;
15673;SDS011;7937;48.090;16.212;2022-11-20T04:29:48;36.33;;;19.97;;
15673;SDS011;7937;48.090;16.212;2022-11-20T04:32:50;39.93;;;20.50;;
15673;SDS011;7937;48.090;16.212;2022-11-20T04:35:59;31.93;;;17.83;;
15673;SDS011;7937;48.090;16.212;2022-11-20T04:39:05;37.30;;;19.63;;
15673;SDS011;7937;48.090;16.212;2022-11-20T04:42:08;34.07;;;19.83;;
15673;SDS011;7937;48.090;16.212;2022-11-20T04:45:30;32.20;;;19.10;;
15673;SDS011;7937;48.090;16.212;2022-11-20T04:48:32;31.17;;;18.77;;
15673;SDS011;7937;48.090;16.212;2022-11-20T04:51:34;32.87;;;19.47;;
15673;SDS011;7937;48.090;16.212;2022-11-20T04:54:36;34.70;;;19.63;;
15673;SDS011;7937;48.090;16.212;2022-11-20T04:57:39;30.60;;;18.97;;
15673;SDS011;7937;48.090;16.212;2022-11-20T05:00:41;33.13;;;19.87;;
15673;SDS011;7937;48.090;16.212;2022-11-20T05:03:43;37.37;;;21.57;;
15673;SDS011;7937;48.090;16.212;2022-11-20T05:06:46;33.20;;;20.57;;
15673;SDS011;7937;48.090;16.212;2022-11-20T05:09:48;34.17;;;19.50;;
15673;SDS011;7937;48.090;16.212;2022-11-20T05:12:50;27.90;;;16.50;;
15673;SDS011;7937;48.090;16.212;2022-11-20T05:15:53;36.70;;;20.80;;
15673;SDS011;7937;48.090;16.212;2022-11-20T05:18:55;33.77;;;19.97;;
15673;SDS011;7937;48.090;16.212;2022-11-20T05:21:57;31.87;;;20.13;;
15673;SDS011;7937;48.090;16.212;2022-11-20T05:24:59;32.37;;;19.13;;
15673;SDS011;7937;48.090;16.212;2022-11-20T05:28:01;34.27;;;20.43;;
15673;SDS011;7937;48.090;16.212;2022-11-20T05:31:04;31.97;;;18.90;;
15673;SDS011;7937;48.090;16.212;2022-11-20T05:34:10;32.40;;;19.73;;
15673;SDS011;7937;48.090;16.212;2022-11-20T05:37:12;36.83;;;19.33;;
15673;SDS011;7937;48.090;16.212;2022-11-20T05:40:14;33.23;;;18.53;;
15673;SDS011;7937;48.090;16.212;2022-11-20T05:43:16;33.00;;;20.00;;
15673;SDS011;7937;48.090;16.212;2022-11-20T05:46:19;35.30;;;20.53;;
15673;SDS011;7937;48.090;16.212;2022-11-20T05:49:28;36.30;;;22.73;;
15673;SDS011;7937;48.090;16.212;2022-11-20T05:52:30;36.87;;;22.20;;
15673;SDS011;7937;48.090;16.212;2022-11-20T05:55:33;35.43;;;20.70;;
15673;SDS011;7937;48.090;16.212;2022-11-20T05:58:35;39.57;;;20.90;;
15673;SDS011;7937;48.090;16.212;2022-11-20T06:01:37;36.27;;;21.17;;
15673;SDS011;7937;48.090;16.212;2022-11-20T06:04:39;38.97;;;21.87;;
15673;SDS011;7937;48.090;16.212;2022-11-20T06:07:41;41.00;;;21.83;;
15673;SDS011;7937;48.090;16.212;2022-11-20T06:10:43;32.77;;;20.57;;
15673;SDS011;7937;48.090;16.212;2022-11-20T06:13:46;35.03;;;20.93;;
15673;SDS011;7937;48.090;16.212;2022-11-20T06:16:48;35.57;;;22.90;;
15673;SDS011;7937;48.090;16.212;2022-11-20T06:19:50;35.07;;;21.50;;
15673;SDS011;7937;48.090;16.212;2022-11-20T06:22:52;38.57;;;23.13;;
15673;SDS011;7937;48.090;16.212;2022-11-20T06:25:54;37.90;;;21.23;;
15673;SDS011;7937;48.090;16.212;2022-11-20T06:28:57;33.60;;;21.23;;
15673;SDS011;7937;48.090;16.212;2022-11-20T06:31:59;40.77;;;22.33;;
15673;SDS011;7937;48.090;16.212;2022-11-20T06:35:01;31.43;;;19.50;;
15673;SDS011;7937;48.090;16.212;2022-11-20T06:38:03;33.47;;;20.43;;
15673;SDS011;7937;48.090;16.212;2022-11-20T06:41:05;36.60;;;20.47;;
15673;SDS011;7937;48.090;16.212;2022-11-20T06:44:10;38.17;;;21.57;;
15673;SDS011;7937;48.090;16.212;2022-11-20T06:47:12;34.83;;;20.57;;
15673;SDS011;7937;48.090;16.212;2022-11-20T06:50:15;36.90;;;22.43;;
15673;SDS011;7937;48.090;16.212;2022-11-20T06:53:17;39.03;;;21.60;;
15673;SDS011;7937;48.090;16.212;2022-11-20T06:56:19;33.37;;;20.97;;
15673;SDS011;7937;48.090;16.212;2022-11-20T06:59:22;33.23;;;21.23;;
15673;SDS011;7937;48.090;16.212;2022-11-20T07:02:24;39.67;;;22.77;;
15673;SDS011;7937;48.090;16.212;2022-11-20T07:05:33;31.93;;;21.17;;
15673;SDS011;7937;48.090;16.212;2022-11-20T07:08:35;36.03;;;21.93;;
15673;SDS011;7937;48.090;16.212;2022-11-20T07:11:38;34.87;;;20.30;;
15673;SDS011;7937;48.090;16.212;2022-11-20T07:14:40;37.77;;;21.87;;
15673;SDS011;7937;48.090;16.212;2022-11-20T07:17:43;35.17;;;21.73;;
15673;SDS011;7937;48.090;16.212;2022-11-20T07:20:45;35.73;;;21.33;;
15673;SDS011;7937;48.090;16.212;2022-11-20T07:23:47;39.63;;;22.43;;
15673;SDS011;7937;48.090;16.212;2022-11-20T07:26:49;37.97;;;22.90;;
15673;SDS011;7937;48.090;16.212;2022-11-20T07:29:51;37.67;;;22.03;;
15673;SDS011;7937;48.090;16.212;2022-11-20T07:32:54;39.30;;;22.90;;
15673;SDS011;7937;48.090;16.212;2022-11-20T07:35:58;39.60;;;23.27;;
15673;SDS011;7937;48.090;16.212;2022-11-20T07:39:01;35.07;;;20.57;;
15673;SDS011;7937;48.090;16.212;2022-11-20T07:42:03;37.73;;;21.70;;
15673;SDS011;7937;48.090;16.212;2022-11-20T07:45:06;40.50;;;22.87;;
15673;SDS011;7937;48.090;16.212;2022-11-20T07:48:09;35.60;;;21.50;;
15673;SDS011;7937;48.090;16.212;2022-11-20T07:51:11;39.73;;;22.20;;
15673;SDS011;7937;48.090;16.212;2022-11-20T07:54:15;38.80;;;24.13;;
15673;SDS011;7937;48.090;16.212;2022-11-20T07:57:17;36.00;;;22.30;;
15673;SDS011;7937;48.090;16.212;2022-11-20T08:00:19;36.80;;;21.50;;
15673;SDS011;7937;48.090;16.212;2022-11-20T08:03:21;43.37;;;24.03;;
15673;SDS011;7937;48.090;16.212;2022-11-20T08:06:26;37.03;;;21.80;;
15673;SDS011;7937;48.090;16.212;2022-11-20T08:09:28;37.07;;;21.60;;
15673;SDS011;7937;48.090;16.212;2022-11-20T08:12:30;43.50;;;24.40;;
15673;SDS011;7937;48.090;16.212;2022-11-20T08:15:51;37.90;;;22.33;;
15673;SDS011;7937;48.090;16.212;2022-11-20T08:18:53;37.40;;;22.90;;
15673;SDS011;7937;48.090;16.212;2022-11-20T08:21:55;36.43;;;21.60;;
15673;SDS011;7937;48.090;16.212;2022-11-20T08:24:57;37.07;;;21.70;;
15673;SDS011;7937;48.090;16.212;2022-11-20T08:28:00;39.60;;;23.63;;
15673;SDS011;7937;48.090;16.212;2022-11-20T08:31:21;37.83;;;22.33;;
15673;SDS011;7937;48.090;16.212;2022-11-20T08:34:24;37.47;;;22.33;;
15673;SDS011;7937;48.090;16.212;2022-11-20T08:37:26;36.80;;;22.53;;
15673;SDS011;7937;48.090;16.212;2022-11-20T08:40:28;39.63;;;22.63;;
15673;SDS011;7937;48.090;16.212;2022-11-20T08:43:31;41.53;;;24.70;;
15673;SDS011;7937;48.090;16.212;2022-11-20T08:46:34;36.60;;;22.17;;
15673;SDS011;7937;48.090;16.212;2022-11-20T08:49:40;36.83;;;23.20;;
15673;SDS011;7937;48.090;16.212;2022-11-20T08:52:43;38.30;;;23.67;;
15673;SDS011;7937;48.090;16.212;2022-11-20T08:55:45;38.40;;;22.67;;
15673;SDS011;7937;48.090;16.212;2022-11-20T08:58:49;34.57;;;21.10;;
15673;SDS011;7937;48.090;16.212;2022-11-20T09:02:11;35.13;;;22.33;;
15673;SDS011;7937;48.090;16.212;2022-11-20T09:05:14;39.47;;;23.47;;
15673;SDS011;7937;48.090;16.212;2022-11-20T09:08:16;37.97;;;22.83;;
15673;SDS011;7937;48.090;16.212;2022-11-20T09:11:18;33.57;;;21.90;;
15673;SDS011;7937;48.090;16.212;2022-11-20T09:14:20;37.33;;;22.70;;
15673;SDS011;7937;48.090;16.212;2022-11-20T09:17:22;37.57;;;23.40;;
15673;SDS011;7937;48.090;16.212;2022-11-20T09:20:25;35.40;;;23.57;;
15673;SDS011;7937;48.090;16.212;2022-11-20T09:23:30;36.43;;;23.20;;
15673;SDS011;7937;48.090;16.212;2022-11-20T09:26:35;35.43;;;22.70;;
15673;SDS011;7937;48.090;16.212;2022-11-20T09:29:37;34.93;;;22.10;;
15673;SDS011;7937;48.090;16.212;2022-11-20T09:32:40;36.10;;;22.70;;
15673;SDS011;7937;48.090;16.212;2022-11-20T09:35:42;35.47;;;21.73;;
15673;SDS011;7937;48.090;16.212;2022-11-20T09:38:46;36.07;;;21.90;;
15673;SDS011;7937;48.090;16.212;2022-11-20T09:45:02;40.50;;;21.73;;
15673;SDS011;7937;48.090;16.212;2022-11-20T09:51:25;33.40;;;22.20;;
15673;SDS011;7937;48.090;16.212;2022-11-20T09:54:55;36.80;;;22.50;;
15673;SDS011;7937;48.090;16.212;2022-11-20T09:57:58;35.37;;;22.17;;
15673;SDS011;7937;48.090;16.212;2022-11-20T10:01:05;37.17;;;23.07;;
15673;SDS011;7937;48.090;16.212;2022-11-20T10:04:15;38.03;;;23.13;;
15673;SDS011;7937;48.090;16.212;2022-11-20T10:07:21;36.00;;;22.67;;
15673;SDS011;7937;48.090;16.212;2022-11-20T10:10:42;34.73;;;21.73;;
15673;SDS011;7937;48.090;16.212;2022-11-20T10:17:33;35.53;;;22.03;;
15673;SDS011;7937;48.090;16.212;2022-11-20T10:21:09;32.57;;;21.83;;
15673;SDS011;7937;48.090;16.212;2022-11-20T10:31:23;33.73;;;22.40;;
15673;SDS011;7937;48.090;16.212;2022-11-20T10:37:47;36.40;;;22.23;;
15673;SDS011;7937;48.090;16.212;2022-11-20T10:40:57;34.50;;;22.93;;
15673;SDS011;7937;48.090;16.212;2022-11-20T10:44:24;38.30;;;23.33;;
15673;SDS011;7937;48.090;16.212;2022-11-20T10:47:49;34.07;;;22.33;;
15673;SDS011;7937;48.090;16.212;2022-11-20T10:57:46;37.53;;;22.23;;
15673;SDS011;7937;48.090;16.212;2022-11-20T11:01:39;35.93;;;22.00;;
15673;SDS011;7937;48.090;16.212;2022-11-20T11:07:31;37.97;;;21.33;;
15673;SDS011;7937;48.090;16.212;2022-11-20T11:14:11;33.90;;;21.57;;
15673;SDS011;7937;48.090;16.212;2022-11-20T11:17:33;31.67;;;21.00;;
15673;SDS011;7937;48.090;16.212;2022-11-20T11:20:36;31.50;;;20.90;;
15673;SDS011;7937;48.090;16.212;2022-11-20T11:23:42;30.77;;;19.80;;
15673;SDS011;7937;48.090;16.212;2022-11-20T11:26:50;33.93;;;21.27;;
15673;SDS011;7937;48.090;16.212;2022-11-20T11:30:01;34.47;;;22.20;;
15673;SDS011;7937;48.090;16.212;2022-11-20T11:33:25;31.47;;;20.90;;
15673;SDS011;7937;48.090;16.212;2022-11-20T11:36:29;34.13;;;20.50;;
15673;SDS011;7937;48.090;16.212;2022-11-20T11:39:32;31.40;;;19.93;;
15673;SDS011;7937;48.090;16.212;2022-11-20T11:42:35;31.63;;;20.60;;
15673;SDS011;7937;48.090;16.212;2022-11-20T11:45:54;31.40;;;21.10;;
15673;SDS011;7937;48.090;16.212;2022-11-20T11:48:58;34.13;;;21.93;;
15673;SDS011;7937;48.090;16.212;2022-11-20T11:52:12;30.37;;;20.27;;
15673;SDS011;7937;48.090;16.212;2022-11-20T11:59:00;29.20;;;19.53;;
15673;SDS011;7937;48.090;16.212;2022-11-20T12:05:35;27.37;;;19.27;;
15673;SDS011;7937;48.090;16.212;2022-11-20T12:12:15;28.83;;;20.47;;
15673;SDS011;7937;48.090;16.212;2022-11-20T12:15:32;28.00;;;20.37;;
15673;SDS011;7937;48.090;16.212;2022-11-20T12:18:36;26.07;;;18.97;;
15673;SDS011;7937;48.090;16.212;2022-11-20T12:25:32;13.37;;;8.53;;
15673;SDS011;7937;48.090;16.212;2022-11-20T12:49:12;1.80;;;1.40;;
15673;SDS011;7937;48.090;16.212;2022-11-20T12:52:26;1.90;;;1.30;;
15673;SDS011;7937;48.090;16.212;2022-11-20T13:05:21;1.40;;;1.20;;
15673;SDS011;7937;48.090;16.212;2022-11-20T13:08:35;1.43;;;1.30;;
15673;SDS011;7937;48.090;16.212;2022-11-20T13:18:45;1.53;;;1.43;;
15673;SDS011;7937;48.090;16.212;2022-11-20T13:21:50;1.47;;;1.33;;
15673;SDS011;7937;48.090;16.212;2022-11-20T13:24:52;1.77;;;1.30;;
15673;SDS011;7937;48.090;16.212;2022-11-20T13:27:56;1.20;;;1.10;;
15673;SDS011;7937;48.090;16.212;2022-11-20T13:31:00;1.83;;;1.30;;
15673;SDS011;7937;48.090;16.212;2022-11-20T13:34:03;2.33;;;1.30;;
15673;SDS011;7937;48.090;16.212;2022-11-20T13:37:23;1.30;;;1.17;;
15673;SDS011;7937;48.090;16.212;2022-11-20T13:40:28;1.60;;;1.50;;
15673;SDS011;7937;48.090;16.212;2022-11-20T13:46:46;3.23;;;1.20;;
15673;SDS011;7937;48.090;16.212;2022-11-20T13:49:49;2.00;;;1.20;;
15673;SDS011;7937;48.090;16.212;2022-11-20T13:56:40;1.50;;;1.40;;
15673;SDS011;7937;48.090;16.212;2022-11-20T13:59:57;3.33;;;1.47;;
15673;SDS011;7937;48.090;16.212;2022-11-20T14:03:01;2.20;;;1.10;;
15673;SDS011;7937;48.090;16.212;2022-11-20T14:06:20;3.13;;;1.10;;
15673;SDS011;7937;48.090;16.212;2022-11-20T14:09:35;1.53;;;1.10;;
15673;SDS011;7937;48.090;16.212;2022-11-20T14:12:38;3.33;;;1.60;;
15673;SDS011;7937;48.090;16.212;2022-11-20T14:15:41;1.30;;;1.20;;
15673;SDS011;7937;48.090;16.212;2022-11-20T14:18:46;2.33;;;1.33;;
15673;SDS011;7937;48.090;16.212;2022-11-20T14:21:51;1.33;;;1.00;;
15673;SDS011;7937;48.090;16.212;2022-11-20T14:28:18;1.73;;;1.13;;
15673;SDS011;7937;48.090;16.212;2022-11-20T14:31:42;3.17;;;1.60;;
15673;SDS011;7937;48.090;16.212;2022-11-20T14:35:02;1.73;;;1.20;;
15673;SDS011;7937;48.090;16.212;2022-11-20T14:38:14;1.70;;;1.20;;
15673;SDS011;7937;48.090;16.212;2022-11-20T14:41:20;1.77;;;1.20;;
15673;SDS011;7937;48.090;16.212;2022-11-20T14:44:32;2.30;;;1.43;;
15673;SDS011;7937;48.090;16.212;2022-11-20T14:47:39;1.40;;;1.20;;
15673;SDS011;7937;48.090;16.212;2022-11-20T14:50:44;1.43;;;1.20;;
15673;SDS011;7937;48.090;16.212;2022-11-20T14:53:47;1.37;;;1.10;;
15673;SDS011;7937;48.090;16.212;2022-11-20T14:56:59;1.90;;;1.10;;
15673;SDS011;7937;48.090;16.212;2022-11-20T15:00:18;0.87;;;0.70;;
15673;SDS011;7937;48.090;16.212;2022-11-20T15:03:30;1.10;;;1.00;;
15673;SDS011;7937;48.090;16.212;2022-11-20T15:06:49;1.10;;;0.90;;
15673;SDS011;7937;48.090;16.212;2022-11-20T15:10:08;1.00;;;0.90;;
15673;SDS011;7937;48.090;16.212;2022-11-20T15:13:43;0.70;;;0.60;;
15673;SDS011;7937;48.090;16.212;2022-11-20T15:16:45;0.70;;;0.70;;
15673;SDS011;7937;48.090;16.212;2022-11-20T15:19:48;1.60;;;0.70;;
15673;SDS011;7937;48.090;16.212;2022-11-20T15:22:51;2.00;;;1.10;;
15673;SDS011;7937;48.090;16.212;2022-11-20T15:25:54;1.63;;;1.30;;
15673;SDS011;7937;48.090;16.212;2022-11-20T15:28:58;1.80;;;1.57;;
15673;SDS011;7937;48.090;16.212;2022-11-20T15:32:01;2.30;;;1.93;;
15673;SDS011;7937;48.090;16.212;2022-11-20T15:35:09;2.80;;;1.70;;
15673;SDS011;7937;48.090;16.212;2022-11-20T15:38:13;1.70;;;1.13;;
15673;SDS011;7937;48.090;16.212;2022-11-20T15:41:16;1.20;;;0.97;;
15673;SDS011;7937;48.090;16.212;2022-11-20T15:44:18;1.60;;;1.20;;
15673;SDS011;7937;48.090;16.212;2022-11-20T15:47:23;1.37;;;1.00;;
15673;SDS011;7937;48.090;16.212;2022-11-20T15:50:37;1.97;;;0.77;;
15673;SDS011;7937;48.090;16.212;2022-11-20T15:53:44;1.80;;;1.00;;
15673;SDS011;7937;48.090;16.212;2022-11-20T15:56:52;1.00;;;0.90;;
15673;SDS011;7937;48.090;16.212;2022-11-20T15:59:56;1.10;;;0.80;;
15673;SDS011;7937;48.090;16.212;2022-11-20T16:02:59;0.70;;;0.70;;
15673;SDS011;7937;48.090;16.212;2022-11-20T16:06:02;2.53;;;1.10;;
15673;SDS011;7937;48.090;16.212;2022-11-20T16:09:05;0.80;;;0.80;;
15673;SDS011;7937;48.090;16.212;2022-11-20T16:12:10;0.80;;;0.80;;
15673;SDS011;7937;48.090;16.212;2022-11-20T16:15:33;2.17;;;1.30;;
15673;SDS011;7937;48.090;16.212;2022-11-20T16:18:49;6.13;;;2.53;;
15673;SDS011;7937;48.090;16.212;2022-11-20T16:21:52;2.73;;;1.57;;
15673;SDS011;7937;48.090;16.212;2022-11-20T16:25:03;6.20;;;2.50;;
15673;SDS011;7937;48.090;16.212;2022-11-20T16:28:06;3.60;;;2.00;;
15673;SDS011;7937;48.090;16.212;2022-11-20T16:31:18;1.33;;;0.80;;
15673;SDS011;7937;48.090;16.212;2022-11-20T16:34:22;3.13;;;1.07;;
15673;SDS011;7937;48.090;16.212;2022-11-20T16:37:26;4.70;;;1.93;;
15673;SDS011;7937;48.090;16.212;2022-11-20T16:40:29;0.97;;;0.70;;
15673;SDS011;7937;48.090;16.212;2022-11-20T16:43:32;4.33;;;0.70;;
15673;SDS011;7937;48.090;16.212;2022-11-20T16:46:36;0.50;;;0.50;;
15673;SDS011;7937;48.090;16.212;2022-11-20T16:49:42;0.77;;;0.77;;
15673;SDS011;7937;48.090;16.212;2022-11-20T16:52:45;2.87;;;1.20;;
15673;SDS011;7937;48.090;16.212;2022-11-20T16:55:48;0.97;;;0.80;;
15673;SDS011;7937;48.090;16.212;2022-11-20T16:58:52;0.80;;;0.63;;
15673;SDS011;7937;48.090;16.212;2022-11-20T17:01:57;1.07;;;0.93;;
15673;SDS011;7937;48.090;16.212;2022-11-20T17:05:00;1.70;;;1.10;;
15673;SDS011;7937;48.090;16.212;2022-11-20T17:08:04;1.93;;;1.50;;
15673;SDS011;7937;48.090;16.212;2022-11-20T17:11:08;3.77;;;1.30;;
15673;SDS011;7937;48.090;16.212;2022-11-20T17:14:12;2.83;;;1.73;;
15673;SDS011;7937;48.090;16.212;2022-11-20T17:17:15;2.60;;;1.57;;
15673;SDS011;7937;48.090;16.212;2022-11-20T17:20:19;3.70;;;2.17;;
15673;SDS011;7937;48.090;16.212;2022-11-20T17:23:23;5.83;;;3.03;;
15673;SDS011;7937;48.090;16.212;2022-11-20T17:26:32;4.33;;;2.60;;
15673;SDS011;7937;48.090;16.212;2022-11-20T17:29:36;6.77;;;3.40;;
15673;SDS011;7937;48.090;16.212;2022-11-20T17:32:43;7.23;;;3.40;;
15673;SDS011;7937;48.090;16.212;2022-11-20T17:35:49;10.17;;;5.27;;
15673;SDS011;7937;48.090;16.212;2022-11-20T17:38:53;8.97;;;5.43;;
15673;SDS011;7937;48.090;16.212;2022-11-20T17:41:56;4.43;;;3.43;;
15673;SDS011;7937;48.090;16.212;2022-11-20T17:45:19;7.33;;;3.97;;
15673;SDS011;7937;48.090;16.212;2022-11-20T17:48:22;6.40;;;3.60;;
15673;SDS011;7937;48.090;16.212;2022-11-20T17:51:26;5.60;;;3.63;;
15673;SDS011;7937;48.090;16.212;2022-11-20T17:54:30;7.07;;;4.53;;
15673;SDS011;7937;48.090;16.212;2022-11-20T17:57:34;6.93;;;3.87;;
15673;SDS011;7937;48.090;16.212;2022-11-20T18:01:03;6.27;;;3.50;;
15673;SDS011;7937;48.090;16.212;2022-11-20T18:04:07;4.60;;;3.23;;
15673;SDS011;7937;48.090;16.212;2022-11-20T18:07:10;7.77;;;4.53;;
15673;SDS011;7937;48.090;16.212;2022-11-20T18:10:14;6.33;;;3.77;;
15673;SDS011;7937;48.090;16.212;2022-11-20T18:13:17;7.00;;;4.53;;
15673;SDS011;7937;48.090;16.212;2022-11-20T18:16:20;7.53;;;3.80;;
15673;SDS011;7937;48.090;16.212;2022-11-20T18:19:24;9.67;;;4.50;;
15673;SDS011;7937;48.090;16.212;2022-11-20T18:22:33;6.97;;;3.87;;
15673;SDS011;7937;48.090;16.212;2022-11-20T18:25:38;5.53;;;3.50;;
15673;SDS011;7937;48.090;16.212;2022-11-20T18:28:41;4.97;;;3.27;;
15673;SDS011;7937;48.090;16.212;2022-11-20T18:31:47;6.77;;;4.17;;
15673;SDS011;7937;48.090;16.212;2022-11-20T18:34:51;4.83;;;3.30;;
15673;SDS011;7937;48.090;16.212;2022-11-20T18:37:54;7.03;;;4.47;;
15673;SDS011;7937;48.090;16.212;2022-11-20T18:40:58;5.77;;;3.67;;
15673;SDS011;7937;48.090;16.212;2022-11-20T18:44:06;4.23;;;3.40;;
15673;SDS011;7937;48.090;16.212;2022-11-20T18:47:33;7.17;;;3.80;;
15673;SDS011;7937;48.090;16.212;2022-11-20T18:50:39;7.03;;;4.77;;
15673;SDS011;7937;48.090;16.212;2022-11-20T18:53:42;5.10;;;3.70;;
15673;SDS011;7937;48.090;16.212;2022-11-20T18:56:48;6.77;;;3.73;;
15673;SDS011;7937;48.090;16.212;2022-11-20T18:59:55;6.13;;;3.50;;
15673;SDS011;7937;48.090;16.212;2022-11-20T19:03:09;5.17;;;3.50;;
15673;SDS011;7937;48.090;16.212;2022-11-20T19:06:13;4.60;;;3.40;;
15673;SDS011;7937;48.090;16.212;2022-11-20T19:09:18;6.47;;;3.90;;
15673;SDS011;7937;48.090;16.212;2022-11-20T19:12:22;5.50;;;3.40;;
15673;SDS011;7937;48.090;16.212;2022-11-20T19:15:25;4.30;;;3.30;;
15673;SDS011;7937;48.090;16.212;2022-11-20T19:18:29;6.10;;;3.20;;
15673;SDS011;7937;48.090;16.212;2022-11-20T19:21:32;4.30;;;2.80;;
15673;SDS011;7937;48.090;16.212;2022-11-20T19:24:40;7.67;;;3.63;;
15673;SDS011;7937;48.090;16.212;2022-11-20T19:27:43;2.70;;;2.17;;
15673;SDS011;7937;48.090;16.212;2022-11-20T19:30:47;5.07;;;2.33;;
15673;SDS011;7937;48.090;16.212;2022-11-20T19:33:53;4.30;;;2.30;;
15673;SDS011;7937;48.090;16.212;2022-11-20T19:36:57;3.27;;;2.07;;
15673;SDS011;7937;48.090;16.212;2022-11-20T19:40:02;3.33;;;1.90;;
15673;SDS011;7937;48.090;16.212;2022-11-20T19:43:06;2.23;;;1.70;;
15673;SDS011;7937;48.090;16.212;2022-11-20T19:46:13;1.80;;;1.50;;
15673;SDS011;7937;48.090;16.212;2022-11-20T19:49:18;2.27;;;1.53;;
15673;SDS011;7937;48.090;16.212;2022-11-20T19:52:21;4.10;;;1.50;;
15673;SDS011;7937;48.090;16.212;2022-11-20T19:55:24;1.87;;;1.40;;
15673;SDS011;7937;48.090;16.212;2022-11-20T19:58:28;1.77;;;1.57;;